Murau, Austria
Current Conditions -  °F | °C
As of 10:20 AM on Friday 24 Oct 2014 (Local Time) from LOXZ Reporting Station
Scattered Clouds Scattered Clouds  
Wind Chill: 46°   Ceiling: Unl
Heat Index: 46°   Visibility: 25mi
Dew Point: 39°   Wind: 3mph
Humidity: 76%   Direction: NA
Pressure: 30.09"   Gusts: NA
Location:  47.11°N, 14.17°E
Report Text: LOXZ 240820Z VRB03KT 40KM FEW040SC SCT055SC 08/04 Q1019 NOSIGRMK BKN
Loading
Personal Weather Stations






























Interactive Weather Map
Tropical Storm Tracking
New forecast layout! Learn more

10-Day Weather Forecast

Advertisements
Track Severe Weather on mobile